Alamosa, CO (81101)

6:06 AM MDT on August 03, 2015 (GMT -0600)
Phillips 66 | | Change Station
CLOSE
Current Station
Personal Weather Station
Location: Alamosa, CO
Elevation: 7539 ft
Nearby Weather Stations

Elev 7539 ft 37.46 °N, 105.86 °W | Updated 1 minute ago

Overcast
Overcast
55.1 °F
Feels Like 55.1 °F
N
1.0
Wind Variable Wind from SSW
Gusts 1.0 mph

Today
High -- | Low -- °F
--% Chance of Precip.
Yesterday
High -- | Low -- °F
Precip. -- in
6:09 AM 8:09 PM
Waning Gibbous, 87% visible
Pressure 30.04 in
Visibility 10.0 miles
Clouds Mostly Cloudy 2700 ft
Overcast 7500 ft
Dew Point 53 °F
Humidity 93%
Rainfall 0.07 in
Snow Depth Not available.
UV 0 out of 12
Pollen 6.80 out of 12
Air Quality Not available.
Flu Activity Not available.
METAR KALS 031152Z AUTO 00000KT 10SM BKN027 OVC075 13/12 A3028 RMK AO2 RAB14E38 SLP172 P0000 60008 70009 T01280117 10144 20128 53001 $

More Conditions Fewer Conditions

Pressure 30.04 in
Visibility 10.0 miles
Clouds Mostly Cloudy 2700 ft
Overcast 7500 ft
Dew Point 53 °F
Humidity 93%
Rainfall 0.07 in
Snow Depth Not available.
UV 0 out of 12
Pollen 6.80 out of 12
Air Quality Not available.
Flu Activity Not available.
METAR KALS 031152Z AUTO 00000KT 10SM BKN027 OVC075 13/12 A3028 RMK AO2 RAB14E38 SLP172 P0000 60008 70009 T01280117 10144 20128 53001 $

More Conditions Fewer Conditions

10-Day Weather Forecast

×

Almanac

Astronomy

Aug. 03, 2015 Rise Set
Actual Time
Civil Twilight
Nautical Twilight
Astronomical Twilight
Moon
Length of Visible Light
Length of Day
Tomorrow will be .
, % of the Moon is Illuminated

Today's Extremes

State Highs State Lows

Community

WunderPhotos

Upload Photos

1,843,618 photos uploaded!

WunderBlogs® & News

Nearby

Air Quality

  Air Quality AQ Index Pollutant
Not available.

Snow Depth

Station Depth Elevation

Earthquake Activity

City Distance Mag. Time & Date
Minimum magnitude displayed is 2.5.

Coastal Water Temperatures

Place Temperature

Stations

Nearby Weather Stations

Station Location Temp. Windchill Dew Point Humidity Wind Precip. Elev Updated Type